Aspen, CO

3:35 PM MDT on October 21, 2014 (GMT -0600)
Tiehack Aspen Colorado | Change Station
CLOSE
Current Station
Personal Weather Station
Location: Aspen, CO
Elevation: 8500 ft
Nearby Weather Stations

Elev 8500 ft 39.20 °N, 106.85 °W | Updated 18 seconds ago

Overcast
Overcast
53.0 °F
Feels Like 53.0 °F
N
3.0
Wind Variable Wind from NW
Gusts 9.0 mph

Today
High -- | Low -- °F
--% Chance of Precip.
Yesterday
High -- | Low -- °F
Precip. -- in
7:23 AM 6:19 PM
Waning Crescent, 4% visible
Pressure 29.85 in
Visibility 10.0 miles
Clouds Scattered Clouds 7500 ft
Mostly Cloudy 9500 ft
Dew Point 39 °F
Humidity 61%
Rainfall 0.00 in
Snow Depth 0 in , 0 in , 0 in
UV 2 out of 12
Pollen 1.90 out of 12
Air Quality Not available.
Flu Activity Sporadic
METAR KASE 212053Z 32013G19KT 10SM SCT075 BKN095 14/03 A3010 RMK AO2 SLP107 T01390033 56016

More Conditions Fewer Conditions

Pressure 29.85 in
Visibility 10.0 miles
Clouds Scattered Clouds 7500 ft
Mostly Cloudy 9500 ft
Dew Point 39 °F
Humidity 61%
Rainfall 0.00 in
Snow Depth 0 in , 0 in , 0 in
UV 2 out of 12
Pollen 1.90 out of 12
Air Quality Not available.
Flu Activity Sporadic
METAR KASE 212053Z 32013G19KT 10SM SCT075 BKN095 14/03 A3010 RMK AO2 SLP107 T01390033 56016

More Conditions Fewer Conditions

10-Day Weather Forecast

Almanac

Astronomy

Oct. 21, 2014 Rise Set
Actual Time 7:23 AM MDT 6:19 PM MDT
Civil Twilight 6:56 AM MDT 6:47 PM MDT
Nautical Twilight 6:24 AM MDT 7:18 PM MDT
Astronomical Twilight 5:53 AM MDT 7:49 PM MDT
Moon 5:11 AM MDT 5:14 PM MDT
Length of Visible Light 11h 51m
Length of Day
10h 56m
Tomorrow will be 2m 24s shorter.
Waning Crescent, 4% of the Moon is Illuminated
Today
Waning Crescent
Oct 23
New
Oct 30
First Quarter
Nov 6
Full
Nov 14
Last Quarter

Today's Extremes

State Highs State Lows

Community

WunderPhotos

Upload Photos

1,763,779 photos uploaded!

Nearby

Snow Depth

Station Depth Elevation
Independence Pass 0 in 10600 ft
Kiln 0 in 9600 ft
Brumley 0 in 10600 ft
North Lost Trail 0 in 9200 ft
Park Cone 0 in 9600 ft

Earthquake Activity

City Distance Mag. Time & Date
No recent earthquake activity has been reported nearby.
Minimum magnitude displayed is 2.5.

Coastal Water Temperatures

Place Temperature
No Stations Reporting

Nearby Weather Stations